createdAt,value
2023-04-25T00:00:37.445Z,0
2023-04-25T00:01:43.575Z,0
2023-04-25T00:02:49.712Z,0
2023-04-25T00:05:01.999Z,0
2023-04-25T00:06:08.136Z,0
2023-04-25T00:07:14.283Z,0
2023-04-25T00:08:20.429Z,0
2023-04-25T00:09:26.578Z,0
2023-04-25T00:10:32.715Z,0
2023-04-25T00:11:38.880Z,0
2023-04-25T00:12:45.003Z,0
2023-04-25T00:13:50.168Z,0
2023-04-25T00:14:56.304Z,0
2023-04-25T00:16:02.463Z,0
2023-04-25T00:17:08.634Z,0
2023-04-25T00:18:14.744Z,0
2023-04-25T00:19:19.901Z,0
2023-04-25T00:21:31.209Z,0
2023-04-25T00:23:43.485Z,0
2023-04-25T00:24:49.639Z,0
2023-04-25T00:25:55.776Z,0
2023-04-25T00:27:01.933Z,0
2023-04-25T00:28:08.073Z,0
2023-04-25T00:29:14.258Z,0
2023-04-25T00:30:20.358Z,0
2023-04-25T00:31:26.498Z,0
2023-04-25T00:32:32.647Z,0
2023-04-25T00:33:38.846Z,0
2023-04-25T00:34:43.943Z,0
2023-04-25T00:35:50.095Z,0
2023-04-25T00:38:02.408Z,0
2023-04-25T00:39:07.538Z,0
2023-04-25T00:40:12.693Z,0
2023-04-25T00:41:18.842Z,0
2023-04-25T00:42:24.992Z,0
2023-04-25T00:43:31.127Z,0
2023-04-25T00:45:43.418Z,0
2023-04-25T00:46:49.560Z,0
2023-04-25T00:47:55.690Z,0
2023-04-25T00:49:01.836Z,0
2023-04-25T00:50:07.987Z,0
2023-04-25T00:52:20.277Z,0
2023-04-25T00:54:32.559Z,0
2023-04-25T00:55:38.836Z,0
2023-04-25T00:56:44.966Z,0
2023-04-25T00:57:51.111Z,0
2023-04-25T01:00:03.386Z,0
2023-04-25T01:01:09.573Z,0
2023-04-25T01:02:15.687Z,0
2023-04-25T01:03:21.824Z,0
2023-04-25T01:05:33.132Z,0
2023-04-25T01:06:39.282Z,0
2023-04-25T01:07:45.562Z,0
2023-04-25T01:08:51.687Z,0
2023-04-25T01:11:03.990Z,0
2023-04-25T01:12:10.138Z,0
2023-04-25T01:13:16.274Z,0
2023-04-25T01:14:22.404Z,0
2023-04-25T01:15:28.548Z,0
2023-04-25T01:16:34.704Z,0
2023-04-25T01:17:40.834Z,0
2023-04-25T01:18:46.976Z,0
2023-04-25T01:20:59.290Z,0
2023-04-25T01:22:04.434Z,0
2023-04-25T01:23:10.583Z,0
2023-04-25T01:24:16.728Z,0
2023-04-25T01:27:35.154Z,0
2023-04-25T01:28:41.298Z,0
2023-04-25T01:29:47.433Z,0
2023-04-25T01:30:53.586Z,0
2023-04-25T01:31:59.720Z,0
2023-04-25T01:33:05.858Z,0
2023-04-25T01:34:12.088Z,0
2023-04-25T01:35:18.162Z,0
2023-04-25T01:36:23.331Z,0
2023-04-25T01:37:29.455Z,0
2023-04-25T01:38:35.612Z,0
2023-04-25T01:39:41.734Z,0
2023-04-25T01:40:47.892Z,0
2023-04-25T01:41:54.038Z,0
2023-04-25T01:44:06.365Z,0
2023-04-25T01:45:12.456Z,0
2023-04-25T01:46:18.597Z,0
2023-04-25T01:47:24.744Z,0
2023-04-25T01:48:30.887Z,0
2023-04-25T01:49:37.025Z,0
2023-04-25T01:50:43.320Z,0
2023-04-25T01:52:54.628Z,0
2023-04-25T01:54:00.767Z,0
2023-04-25T01:55:06.931Z,0
2023-04-25T01:56:13.056Z,0
2023-04-25T01:57:19.206Z,0
2023-04-25T01:58:25.339Z,0
2023-04-25T02:00:37.637Z,0
2023-04-25T02:01:43.772Z,0
2023-04-25T02:02:49.921Z,0
2023-04-25T02:03:56.053Z,0
2023-04-25T02:05:02.203Z,0
2023-04-25T02:06:07.359Z,0
2023-04-25T02:07:13.512Z,0
2023-04-25T02:08:19.645Z,0
2023-04-25T02:09:25.784Z,0
2023-04-25T02:10:31.949Z,0
2023-04-25T02:11:38.075Z,0
2023-04-25T02:12:44.224Z,0
2023-04-25T02:13:50.391Z,0
2023-04-25T02:14:56.511Z,0
2023-04-25T02:17:07.821Z,0
2023-04-25T02:19:20.320Z,0
2023-04-25T02:20:25.442Z,0
2023-04-25T02:21:30.569Z,0
2023-04-25T02:22:36.707Z,0
2023-04-25T02:23:42.895Z,0
2023-04-25T02:24:48.993Z,0
2023-04-25T02:25:55.131Z,0
2023-04-25T02:28:07.443Z,0
2023-04-25T02:29:13.568Z,0
2023-04-25T02:31:25.854Z,0
2023-04-25T02:34:44.304Z,0
2023-04-25T02:35:49.460Z,0
2023-04-25T02:36:55.585Z,0
2023-04-25T02:38:01.744Z,0
2023-04-25T02:39:07.876Z,0
2023-04-25T02:40:14.030Z,0
2023-04-25T02:41:20.165Z,0
2023-04-25T02:42:26.300Z,0
2023-04-25T02:43:32.453Z,0
2023-04-25T02:44:38.594Z,0
2023-04-25T02:46:50.883Z,0
2023-04-25T02:47:57.030Z,0
2023-04-25T02:50:09.307Z,0
2023-04-25T02:51:14.472Z,0
2023-04-25T02:52:20.640Z,0
2023-04-25T02:53:26.798Z,0
2023-04-25T02:54:32.935Z,0
2023-04-25T02:55:39.130Z,0
2023-04-25T02:56:45.190Z,0
2023-04-25T02:57:51.341Z,0
2023-04-25T02:58:57.495Z,0
2023-04-25T03:00:03.612Z,0
2023-04-25T03:01:09.764Z,0
2023-04-25T03:02:15.919Z,0
2023-04-25T03:03:22.053Z,0
2023-04-25T03:04:28.204Z,0
2023-04-25T03:06:39.495Z,0
2023-04-25T03:07:45.677Z,0
2023-04-25T03:08:51.781Z,0
2023-04-25T03:09:57.922Z,0
2023-04-25T03:11:04.072Z,0
2023-04-25T03:12:10.229Z,0
2023-04-25T03:13:16.358Z,0
2023-04-25T03:15:27.680Z,0
2023-04-25T03:16:32.827Z,0
2023-04-25T03:17:39.000Z,0
2023-04-25T03:18:45.130Z,0
2023-04-25T03:19:51.282Z,0
2023-04-25T03:20:57.417Z,0
2023-04-25T03:25:21.975Z,0
2023-04-25T03:26:28.122Z,0
2023-04-25T03:27:34.268Z,0
2023-04-25T03:28:40.407Z,0
2023-04-25T03:30:52.711Z,0
2023-04-25T03:33:04.008Z,0
2023-04-25T03:35:16.306Z,0
2023-04-25T03:36:22.435Z,0
2023-04-25T03:37:28.584Z,0
2023-04-25T03:39:40.891Z,0
2023-04-25T03:40:47.003Z,0
2023-04-25T03:41:53.157Z,0
2023-04-25T03:42:59.284Z,0
2023-04-25T03:45:11.581Z,0
2023-04-25T03:46:16.743Z,0
2023-04-25T03:48:29.027Z,0
2023-04-25T03:49:35.174Z,0
2023-04-25T03:51:47.456Z,0
2023-04-25T03:52:53.612Z,0
2023-04-25T03:53:59.747Z,4
2023-04-25T03:56:12.030Z,0
2023-04-25T03:57:18.176Z,4
2023-04-25T03:58:24.323Z,4
2023-04-25T04:00:36.635Z,4
2023-04-25T04:01:41.762Z,4
2023-04-25T04:02:47.913Z,8
2023-04-25T04:03:54.050Z,8
2023-04-25T04:05:00.193Z,12
2023-04-25T04:07:12.478Z,16
2023-04-25T04:09:24.765Z,20
2023-04-25T04:10:30.903Z,24
2023-04-25T04:12:43.192Z,32
2023-04-25T04:14:55.486Z,44
2023-04-25T04:16:00.641Z,52
2023-04-25T04:17:06.784Z,60
2023-04-25T04:18:12.942Z,68
2023-04-25T04:19:19.085Z,80
2023-04-25T04:20:25.234Z,88
2023-04-25T04:21:31.398Z,96
2023-04-25T04:22:37.521Z,112
2023-04-25T04:23:43.641Z,120
2023-04-25T04:24:49.840Z,132
2023-04-25T04:25:55.949Z,148
2023-04-25T04:27:02.078Z,160
2023-04-25T04:29:14.363Z,192
2023-04-25T04:30:20.509Z,204
2023-04-25T04:31:26.790Z,216
2023-04-25T04:32:32.927Z,228
2023-04-25T04:33:39.053Z,244
2023-04-25T04:34:45.228Z,260
2023-04-25T04:36:57.494Z,292
2023-04-25T04:38:03.635Z,312
2023-04-25T04:39:09.839Z,328
2023-04-25T04:40:15.924Z,348
2023-04-25T04:41:22.074Z,360
2023-04-25T04:42:28.216Z,380
2023-04-25T04:43:34.446Z,392
2023-04-25T04:45:46.667Z,424
2023-04-25T04:46:51.815Z,440
2023-04-25T04:47:57.947Z,456
2023-04-25T04:49:03.178Z,484
2023-04-25T04:50:09.257Z,512
2023-04-25T04:51:15.401Z,540
2023-04-25T04:52:21.557Z,568
2023-04-25T04:53:27.719Z,592
2023-04-25T04:54:33.901Z,612
2023-04-25T04:56:46.132Z,644
2023-04-25T04:57:52.264Z,668
2023-04-25T04:58:58.400Z,696
2023-04-25T05:00:04.558Z,728
2023-04-25T05:02:16.845Z,820
2023-04-25T05:03:21.994Z,868
2023-04-25T05:04:28.134Z,900
2023-04-25T05:05:34.282Z,940
2023-04-25T05:06:40.418Z,960
2023-04-25T05:07:46.567Z,988
2023-04-25T05:11:05.009Z,1100
2023-04-25T05:13:17.283Z,1212
2023-04-25T05:14:23.448Z,1280
2023-04-25T05:15:29.614Z,1368
2023-04-25T05:18:48.046Z,1508
2023-04-25T05:19:53.177Z,1592
2023-04-25T05:20:59.303Z,1616
2023-04-25T05:22:05.453Z,1568
2023-04-25T05:23:11.596Z,1536
2023-04-25T05:24:17.740Z,1512
2023-04-25T05:25:23.929Z,1512
2023-04-25T05:26:30.030Z,1524
2023-04-25T05:27:36.161Z,1624
2023-04-25T05:28:42.321Z,1816
2023-04-25T05:29:48.465Z,2016
2023-04-25T05:30:54.593Z,2196
2023-04-25T05:32:00.795Z,2324
2023-04-25T05:33:06.898Z,2400
2023-04-25T05:35:18.192Z,2452
2023-04-25T05:36:24.335Z,2452
2023-04-25T05:37:30.467Z,2428
2023-04-25T05:39:42.758Z,2324
2023-04-25T05:40:48.933Z,2284
2023-04-25T05:41:55.047Z,2244
2023-04-25T05:43:01.189Z,2208
2023-04-25T05:44:07.327Z,2200
2023-04-25T05:45:13.469Z,2240
2023-04-25T05:47:25.757Z,2304
2023-04-25T05:48:30.925Z,2312
2023-04-25T05:49:37.064Z,2292
2023-04-25T05:51:49.361Z,2048
2023-04-25T05:52:55.486Z,1748
2023-04-25T05:54:01.717Z,1484
2023-04-25T05:55:07.772Z,1348
2023-04-25T05:56:13.934Z,1292
2023-04-25T05:57:20.060Z,1284
2023-04-25T05:58:26.199Z,1312
2023-04-25T06:00:38.485Z,1392
2023-04-25T06:01:44.628Z,1320
2023-04-25T06:02:50.791Z,1104
2023-04-25T06:03:55.936Z,844
2023-04-25T06:05:02.102Z,652
2023-04-25T06:06:08.266Z,564
2023-04-25T06:09:26.645Z,392
2023-04-25T06:10:32.795Z,392
2023-04-25T06:11:38.931Z,404
2023-04-25T06:12:45.073Z,384
2023-04-25T06:13:51.232Z,376
2023-04-25T06:17:09.649Z,360
2023-04-25T06:19:20.952Z,328
2023-04-25T06:20:27.127Z,340
2023-04-25T06:21:33.240Z,324
2023-04-25T06:22:39.403Z,328
2023-04-25T06:24:51.665Z,496
2023-04-25T06:25:57.830Z,764
2023-04-25T06:30:22.390Z,1016
2023-04-25T06:33:40.805Z,1660
2023-04-25T06:34:45.987Z,1768
2023-04-25T06:35:52.120Z,1800
2023-04-25T06:36:58.266Z,1760
2023-04-25T06:39:10.559Z,1604
2023-04-25T06:41:22.837Z,1576
2023-04-25T06:42:28.979Z,1704
2023-04-25T06:43:35.118Z,1816
2023-04-25T06:45:47.428Z,1924
2023-04-25T06:46:53.556Z,1868
2023-04-25T06:47:59.769Z,1796
2023-04-25T06:49:04.852Z,1824
2023-04-25T06:50:10.998Z,1860
2023-04-25T06:51:17.143Z,1720
2023-04-25T06:52:23.297Z,1456
2023-04-25T06:53:29.498Z,1452
2023-04-25T06:55:41.716Z,1796
2023-04-25T06:57:53.998Z,1736
2023-04-25T06:59:00.150Z,1680
2023-04-25T07:01:12.436Z,1480
2023-04-25T07:02:18.576Z,1500
2023-04-25T07:03:23.732Z,1540
2023-04-25T07:04:29.880Z,1556
2023-04-25T07:05:36.022Z,1480
2023-04-25T07:06:42.182Z,1508
2023-04-25T07:07:48.309Z,1592
2023-04-25T07:08:54.457Z,1692
2023-04-25T07:10:00.623Z,2048
2023-04-25T07:11:06.750Z,2312
2023-04-25T07:12:12.886Z,2244
2023-04-25T07:13:19.070Z,2044
2023-04-25T07:14:25.163Z,1812
2023-04-25T07:15:31.325Z,1528
2023-04-25T07:16:37.459Z,1820
2023-04-25T07:18:48.813Z,2004
2023-04-25T07:19:54.901Z,1900
2023-04-25T07:21:01.092Z,1844
2023-04-25T07:22:07.193Z,1828
2023-04-25T07:23:13.335Z,1664
2023-04-25T07:24:18.511Z,1516
2023-04-25T07:25:24.814Z,1832
2023-04-25T07:26:30.930Z,2012
2023-04-25T07:30:55.484Z,1152
2023-04-25T07:33:07.783Z,1124
2023-04-25T07:34:13.917Z,1500
2023-04-25T07:36:26.227Z,1488
2023-04-25T07:39:44.637Z,1580
2023-04-25T07:40:49.817Z,1648
2023-04-25T07:41:56.032Z,1268
2023-04-25T07:43:02.124Z,1512
2023-04-25T07:47:25.684Z,1896
2023-04-25T07:49:36.998Z,2880
2023-04-25T07:52:54.464Z,3760
2023-04-25T07:56:11.952Z,3112
2023-04-25T07:57:17.119Z,3956
2023-04-25T07:58:23.363Z,3736
2023-04-25T07:59:28.373Z,4840
2023-04-25T08:00:34.517Z,4380
2023-04-25T08:01:40.660Z,4600
2023-04-25T08:02:46.863Z,3336
2023-04-25T08:03:52.954Z,4620
2023-04-25T08:04:59.088Z,5792
2023-04-25T08:06:05.235Z,4360
2023-04-25T08:07:11.384Z,4236
2023-04-25T08:08:17.511Z,4220
2023-04-25T08:09:22.688Z,4320
2023-04-25T08:11:33.993Z,4132
2023-04-25T08:13:46.274Z,5172
2023-04-25T08:15:58.684Z,3896
2023-04-25T08:17:04.821Z,3636
2023-04-25T08:18:10.973Z,2616
2023-04-25T08:20:23.277Z,3716
2023-04-25T08:21:29.467Z,3648
2023-04-25T08:22:35.532Z,4452
2023-04-25T08:23:41.681Z,5112
2023-04-25T08:24:46.838Z,5308
2023-04-25T08:25:52.067Z,6640
2023-04-25T08:32:27.906Z,5940
2023-04-25T08:33:33.098Z,4940
2023-04-25T08:34:39.231Z,4972
2023-04-25T08:37:57.626Z,3556
2023-04-25T08:40:09.915Z,3440
2023-04-25T08:42:22.204Z,3528
2023-04-25T08:44:34.603Z,4132
2023-04-25T08:45:40.779Z,3988
2023-04-25T08:46:46.893Z,3940
2023-04-25T08:47:52.163Z,3548
2023-04-25T08:48:58.129Z,4360
2023-04-25T08:50:04.369Z,3532
2023-04-25T08:54:28.894Z,3568
2023-04-25T08:55:35.173Z,4272
2023-04-25T08:56:41.093Z,3792
2023-04-25T08:58:53.443Z,4232
2023-04-25T08:59:59.680Z,5528
2023-04-25T09:01:05.866Z,4428
2023-04-25T09:02:10.969Z,2928
2023-04-25T09:03:17.022Z,2640
2023-04-25T09:04:23.318Z,2932
2023-04-25T09:05:29.432Z,2740
2023-04-25T09:09:53.966Z,2856
2023-04-25T09:14:18.536Z,3880
2023-04-25T09:15:24.677Z,3968
2023-04-25T09:17:36.045Z,4284
2023-04-25T09:18:42.004Z,5468
2023-04-25T09:23:06.770Z,20832
2023-04-25T09:24:12.849Z,20064
2023-04-25T09:26:24.963Z,20768
2023-04-25T09:28:37.445Z,16064
2023-04-25T09:29:43.594Z,12192
2023-04-25T09:30:48.739Z,14656
2023-04-25T09:31:54.771Z,18176
2023-04-25T09:33:00.835Z,29440
2023-04-25T09:34:07.035Z,34720
2023-04-25T09:35:13.158Z,30752
2023-04-25T09:36:19.281Z,23648
2023-04-25T09:38:31.558Z,21600
2023-04-25T09:39:37.868Z,13064
2023-04-25T09:40:43.836Z,9340
2023-04-25T09:42:56.154Z,8012
2023-04-25T09:44:02.372Z,5928
2023-04-25T09:45:07.423Z,5328
2023-04-25T09:46:13.664Z,4424
2023-04-25T09:47:19.871Z,4128
2023-04-25T09:48:26.062Z,5572
2023-04-25T09:49:32.120Z,6212
2023-04-25T09:50:38.314Z,6672
2023-04-25T09:51:44.458Z,6904
2023-04-25T09:52:50.656Z,6420
2023-04-25T09:53:56.651Z,4972
2023-04-25T09:55:02.901Z,4096
2023-04-25T09:57:15.155Z,4364
2023-04-25T09:59:27.556Z,5228
2023-04-25T10:00:32.721Z,5044
2023-04-25T10:01:38.729Z,4252
2023-04-25T10:02:44.761Z,5768
2023-04-25T10:03:50.939Z,5696
2023-04-25T10:04:57.050Z,6056
2023-04-25T10:06:03.174Z,10604
2023-04-25T10:08:15.605Z,28800
2023-04-25T10:09:21.730Z,34176
2023-04-25T10:10:27.909Z,37472
2023-04-25T10:11:34.033Z,30048
2023-04-25T10:12:40.158Z,20416
2023-04-25T10:13:46.332Z,31264
2023-04-25T10:15:57.607Z,52032
2023-04-25T10:17:03.741Z,60288
2023-04-25T10:18:09.887Z,15936
2023-04-25T10:19:16.065Z,30976
2023-04-25T10:20:22.172Z,14616
2023-04-25T10:21:28.333Z,13372
2023-04-25T10:22:34.479Z,10440
2023-04-25T10:23:40.682Z,51424
2023-04-25T10:24:46.741Z,20192
2023-04-25T10:25:52.889Z,11524
2023-04-25T10:26:59.040Z,13364
2023-04-25T10:28:05.166Z,12140
2023-04-25T10:29:10.357Z,10372
2023-04-25T10:30:16.471Z,9344
2023-04-25T10:32:27.791Z,18080
2023-04-25T10:33:32.937Z,21952
2023-04-25T10:34:39.106Z,51424
2023-04-25T10:35:45.254Z,13292
2023-04-25T10:37:57.582Z,44896
2023-04-25T10:39:03.677Z,20768
2023-04-25T10:41:15.948Z,39552
2023-04-25T10:42:22.081Z,58400
2023-04-25T10:43:28.274Z,42080
2023-04-25T10:44:34.369Z,1536
2023-04-25T10:46:46.690Z,15552
2023-04-25T10:48:57.984Z,65216
2023-04-25T10:50:04.298Z,4448
2023-04-25T10:51:10.400Z,2880
2023-04-25T10:53:22.632Z,9548
2023-04-25T10:54:28.858Z,9084
2023-04-25T10:56:41.183Z,4352
2023-04-25T10:57:47.124Z,1440
2023-04-25T10:58:53.370Z,1760
2023-04-25T10:59:59.556Z,1568
2023-04-25T11:01:05.541Z,1120
2023-04-25T11:02:10.894Z,448
2023-04-25T11:03:17.005Z,64768
2023-04-25T11:05:29.342Z,63872
2023-04-25T11:06:35.479Z,17408
2023-04-25T11:07:41.635Z,11560
2023-04-25T11:08:47.752Z,9588
2023-04-25T11:11:00.056Z,6032
2023-04-25T11:12:06.184Z,4884
2023-04-25T11:13:12.357Z,4200
2023-04-25T11:14:18.418Z,3628
2023-04-25T11:16:30.588Z,2908
2023-04-25T11:17:35.753Z,2764
2023-04-25T11:18:41.851Z,2800
2023-04-25T11:24:12.837Z,4296
2023-04-25T11:25:18.865Z,5464
2023-04-25T11:26:25.088Z,6756
2023-04-25T11:27:31.189Z,7664
2023-04-25T11:28:37.293Z,9148
2023-04-25T11:31:55.710Z,8532
2023-04-25T11:33:00.730Z,7676
2023-04-25T11:34:06.870Z,6704
2023-04-25T11:35:13.126Z,6084
2023-04-25T11:36:19.349Z,5644
2023-04-25T11:38:31.647Z,5360
2023-04-25T11:41:50.051Z,4980
2023-04-25T11:44:02.344Z,4944
2023-04-25T11:45:08.488Z,4988
2023-04-25T11:46:14.624Z,5492
2023-04-25T11:47:19.773Z,5980
2023-04-25T11:48:26.150Z,6852
2023-04-25T11:49:32.078Z,7704
2023-04-25T11:51:44.368Z,7976
2023-04-25T11:52:50.522Z,8676
2023-04-25T11:55:02.752Z,7832
2023-04-25T11:56:08.923Z,9280
2023-04-25T11:57:14.920Z,11800
2023-04-25T11:58:21.278Z,11748
2023-04-25T12:00:33.542Z,9200
2023-04-25T12:01:38.657Z,7540
2023-04-25T12:02:44.794Z,6044
2023-04-25T12:03:50.948Z,5960
2023-04-25T12:04:57.075Z,6064
2023-04-25T12:06:03.219Z,6392
2023-04-25T12:07:09.361Z,8092
2023-04-25T12:08:15.540Z,9004
2023-04-25T12:09:21.686Z,8192
2023-04-25T12:11:33.984Z,8716
2023-04-25T12:12:40.068Z,8952
2023-04-25T12:14:52.371Z,7292
2023-04-25T12:17:04.683Z,6300
2023-04-25T12:18:09.764Z,5440
2023-04-25T12:20:22.090Z,7528
2023-04-25T12:21:28.248Z,8604
2023-04-25T12:22:34.388Z,8028
2023-04-25T12:23:40.537Z,7148
2023-04-25T12:24:46.590Z,6540
2023-04-25T12:29:11.280Z,7204
2023-04-25T12:30:17.225Z,7636
2023-04-25T12:32:29.517Z,12792
2023-04-25T12:33:34.826Z,9260
2023-04-25T12:34:41.026Z,6728
2023-04-25T12:35:47.140Z,5808
2023-04-25T12:36:53.095Z,5496
2023-04-25T12:37:59.410Z,5368
2023-04-25T12:40:11.702Z,5356
2023-04-25T12:41:17.897Z,5528
2023-04-25T12:44:36.372Z,6048
2023-04-25T12:47:54.615Z,8212
2023-04-25T12:48:59.836Z,8124
2023-04-25T12:50:05.843Z,8644
2023-04-25T12:51:12.102Z,8240
2023-04-25T12:52:18.244Z,7252
2023-04-25T12:53:24.437Z,6384
2023-04-25T12:57:49.018Z,4428
2023-04-25T12:58:54.964Z,4008
2023-04-25T13:01:07.347Z,3916
2023-04-25T13:02:13.490Z,4084
2023-04-25T13:06:37.169Z,4132
2023-04-25T13:07:43.276Z,4384
2023-04-25T13:08:49.288Z,5072
2023-04-25T13:09:55.463Z,5460
2023-04-25T13:13:13.964Z,3412
2023-04-25T13:14:20.007Z,2864
2023-04-25T13:15:26.146Z,2516
2023-04-25T13:17:38.582Z,2396
2023-04-25T13:18:44.833Z,2220
2023-04-25T13:20:57.125Z,1756
2023-04-25T13:22:03.285Z,1584
2023-04-25T13:23:09.460Z,1540
2023-04-25T13:24:15.504Z,1548
2023-04-25T13:27:33.999Z,1508
2023-04-25T13:28:40.144Z,1480
2023-04-25T13:29:46.258Z,1560
2023-04-25T13:30:52.318Z,1856
2023-04-25T13:31:58.556Z,2308
2023-04-25T13:34:09.805Z,2496
2023-04-25T13:35:15.903Z,2872
2023-04-25T13:36:21.983Z,3664
2023-04-25T13:41:52.707Z,2968
2023-04-25T13:42:58.874Z,2508
2023-04-25T13:44:04.991Z,2164
2023-04-25T13:45:11.137Z,1968
2023-04-25T13:46:17.336Z,1848
2023-04-25T13:48:28.610Z,1864
2023-04-25T13:50:40.966Z,1736
2023-04-25T13:51:47.120Z,1888
2023-04-25T13:52:53.212Z,1920
2023-04-25T13:53:59.400Z,1920
2023-04-25T13:56:11.642Z,2404
2023-04-25T13:57:17.806Z,2804
2023-04-25T13:59:30.023Z,3912
2023-04-25T14:00:36.180Z,5164
2023-04-25T14:01:41.340Z,6256
2023-04-25T14:02:47.473Z,6624
2023-04-25T14:03:53.594Z,6788
2023-04-25T14:04:59.753Z,7292
2023-04-25T14:07:12.034Z,7048
2023-04-25T14:08:18.268Z,6684
2023-04-25T14:09:24.357Z,7176
2023-04-25T14:10:30.465Z,7244
2023-04-25T14:11:36.635Z,6788
2023-04-25T14:12:42.852Z,6324
2023-04-25T14:13:48.884Z,5860
2023-04-25T14:14:55.109Z,5896
2023-04-25T14:16:00.218Z,6124
2023-04-25T14:17:06.408Z,5876
2023-04-25T14:19:18.622Z,5096
2023-04-25T14:20:24.778Z,4500
2023-04-25T14:21:30.947Z,4420
2023-04-25T14:22:37.090Z,4936
2023-04-25T14:23:43.324Z,5300
2023-04-25T14:25:55.476Z,6064
2023-04-25T14:27:01.751Z,6232
2023-04-25T14:28:07.785Z,5988
2023-04-25T14:29:13.915Z,5692
2023-04-25T14:30:19.145Z,5600
2023-04-25T14:31:25.293Z,5752
2023-04-25T14:32:31.451Z,5856
2023-04-25T14:33:37.512Z,6072
2023-04-25T14:34:43.714Z,5936
2023-04-25T14:35:49.786Z,5028
2023-04-25T14:36:55.973Z,4768
2023-04-25T14:38:02.106Z,5208
2023-04-25T14:40:14.387Z,6036
2023-04-25T14:41:20.538Z,6016
2023-04-25T14:42:26.644Z,5472
2023-04-25T14:43:32.791Z,4760
2023-04-25T14:44:38.040Z,4284
2023-04-25T14:45:44.087Z,4288
2023-04-25T14:50:08.733Z,4964
2023-04-25T14:52:21.005Z,5284
2023-04-25T14:53:27.094Z,5216
2023-04-25T14:54:33.370Z,4928
2023-04-25T14:56:45.598Z,5252
2023-04-25T14:57:51.659Z,5600
2023-04-25T14:58:57.015Z,5852
2023-04-25T15:00:02.970Z,5620
2023-04-25T15:01:09.218Z,4632
2023-04-25T15:02:15.333Z,3904
2023-04-25T15:04:27.660Z,3936
2023-04-25T15:05:33.885Z,3820
2023-04-25T15:06:39.938Z,3664
2023-04-25T15:07:46.022Z,3988
2023-04-25T15:08:52.233Z,4188
2023-04-25T15:09:58.262Z,4312
2023-04-25T15:11:04.673Z,4348
2023-04-25T15:13:16.746Z,4008
2023-04-25T15:14:21.958Z,3828
2023-04-25T15:16:34.241Z,4368
2023-04-25T15:17:40.382Z,4372
2023-04-25T15:18:46.528Z,4400
2023-04-25T15:19:52.657Z,4220
2023-04-25T15:22:04.993Z,4304
2023-04-25T15:24:17.307Z,4556
2023-04-25T15:25:23.424Z,4840
2023-04-25T15:27:35.724Z,4992
2023-04-25T15:30:53.053Z,3908
2023-04-25T15:31:59.217Z,3752
2023-04-25T15:33:05.414Z,3536
2023-04-25T15:35:17.642Z,3168
2023-04-25T15:36:23.845Z,3080
2023-04-25T15:38:36.084Z,2836
2023-04-25T15:39:42.157Z,2732
2023-04-25T15:40:48.297Z,2612
2023-04-25T15:41:54.450Z,2468
2023-04-25T15:42:59.612Z,2468
2023-04-25T15:44:05.876Z,2504
2023-04-25T15:46:18.028Z,2768
2023-04-25T15:48:30.326Z,2704
2023-04-25T15:49:36.576Z,2688
2023-04-25T15:51:48.857Z,2760
2023-04-25T15:52:54.933Z,2500
2023-04-25T15:54:01.201Z,2348
2023-04-25T15:55:07.190Z,2404
2023-04-25T15:56:13.404Z,2420
2023-04-25T15:57:18.559Z,2448
2023-04-25T15:58:24.685Z,2872
2023-04-25T15:59:29.798Z,3600
2023-04-25T16:02:48.277Z,3204
2023-04-25T16:05:00.542Z,2972
2023-04-25T16:06:06.757Z,2888
2023-04-25T16:08:18.987Z,2752
2023-04-25T16:09:25.073Z,2812
2023-04-25T16:10:31.253Z,2700
2023-04-25T16:11:37.414Z,2424
2023-04-25T16:12:43.653Z,2416
2023-04-25T16:13:48.671Z,2232
2023-04-25T16:14:54.813Z,2056
2023-04-25T16:16:00.948Z,1932
2023-04-25T16:17:07.097Z,1876
2023-04-25T16:20:25.659Z,1808
2023-04-25T16:21:31.711Z,1780
2023-04-25T16:22:37.817Z,1784
2023-04-25T16:23:44.116Z,1956
2023-04-25T16:24:50.124Z,2092
2023-04-25T16:25:56.441Z,2196
2023-04-25T16:27:02.420Z,2296
2023-04-25T16:28:08.698Z,2340
2023-04-25T16:29:14.796Z,2320
2023-04-25T16:31:27.131Z,2348
2023-04-25T16:32:33.242Z,2396
2023-04-25T16:35:51.676Z,2340
2023-04-25T16:38:04.037Z,2232
2023-04-25T16:39:10.133Z,2184
2023-04-25T16:41:22.401Z,2244
2023-04-25T16:43:33.782Z,2192
2023-04-25T16:44:39.857Z,2100
2023-04-25T16:45:45.966Z,2028
2023-04-25T16:46:52.108Z,1980
2023-04-25T16:47:58.291Z,1812
2023-04-25T16:50:10.533Z,1552
2023-04-25T16:52:22.809Z,1180
2023-04-25T16:54:35.117Z,1184
2023-04-25T16:56:47.406Z,1336
2023-04-25T16:57:53.662Z,1276
2023-04-25T16:58:58.775Z,1480
2023-04-25T17:00:04.834Z,1492
2023-04-25T17:01:11.022Z,1332
2023-04-25T17:02:17.216Z,1300
2023-04-25T17:04:29.397Z,1300
2023-04-25T17:05:35.676Z,1320
2023-04-25T17:06:41.722Z,1316
2023-04-25T17:08:53.991Z,1308
2023-04-25T17:10:00.203Z,1304
2023-04-25T17:11:06.274Z,1292
2023-04-25T17:13:18.706Z,1492
2023-04-25T17:14:23.724Z,1612
2023-04-25T17:15:29.909Z,1716
2023-04-25T17:18:48.434Z,1548
2023-04-25T17:21:00.576Z,1444
2023-04-25T17:25:25.158Z,1188
2023-04-25T17:27:37.429Z,1200
2023-04-25T17:30:54.885Z,1304
2023-04-25T17:33:07.183Z,1296
2023-04-25T17:34:13.343Z,1260
2023-04-25T17:35:19.478Z,1228
2023-04-25T17:36:25.613Z,1188
2023-04-25T17:38:38.001Z,1112
2023-04-25T17:39:44.060Z,1064
2023-04-25T17:41:56.308Z,984
2023-04-25T17:43:02.498Z,916
2023-04-25T17:44:07.608Z,864
2023-04-25T17:45:13.790Z,804
2023-04-25T17:46:19.921Z,752
2023-04-25T17:47:26.091Z,716
2023-04-25T17:48:32.190Z,668
2023-04-25T17:49:38.319Z,632
2023-04-25T17:50:44.458Z,616
2023-04-25T17:51:50.673Z,580
2023-04-25T17:52:56.777Z,540
2023-04-25T17:54:02.910Z,484
2023-04-25T17:55:09.040Z,456
2023-04-25T17:56:15.240Z,436
2023-04-25T17:58:27.570Z,388
2023-04-25T18:00:38.916Z,332
2023-04-25T18:01:45.012Z,292
2023-04-25T18:03:57.201Z,220
2023-04-25T18:05:03.341Z,192
2023-04-25T18:06:09.482Z,164
2023-04-25T18:07:15.639Z,148
2023-04-25T18:09:27.967Z,112
2023-04-25T18:14:58.749Z,96
2023-04-25T18:16:03.792Z,84
2023-04-25T18:17:09.937Z,72
2023-04-25T18:19:22.292Z,80
2023-04-25T18:20:28.353Z,84
2023-04-25T18:21:34.497Z,84
2023-04-25T18:23:46.920Z,68
2023-04-25T18:24:52.980Z,56
2023-04-25T18:25:59.190Z,48
2023-04-25T18:27:05.365Z,40
2023-04-25T18:29:17.511Z,36
2023-04-25T18:31:29.890Z,36
2023-04-25T18:32:34.954Z,32
2023-04-25T18:33:41.214Z,28
2023-04-25T18:34:47.256Z,24
2023-04-25T18:35:53.383Z,24
2023-04-25T18:36:59.533Z,16
2023-04-25T18:39:11.814Z,16
2023-04-25T18:40:17.962Z,8
2023-04-25T18:42:30.251Z,8
2023-04-25T18:43:36.438Z,8
2023-04-25T18:45:48.687Z,4
2023-04-25T18:49:06.145Z,0
2023-04-25T18:50:12.259Z,4
2023-04-25T18:52:24.545Z,4
2023-04-25T18:53:30.759Z,0
2023-04-25T18:54:36.836Z,0
2023-04-25T18:55:42.982Z,0
2023-04-25T18:56:49.144Z,0
2023-04-25T18:57:55.260Z,0
2023-04-25T18:59:01.548Z,0
2023-04-25T19:00:07.551Z,0
2023-04-25T19:04:31.162Z,0
2023-04-25T19:06:43.486Z,0
2023-04-25T19:07:49.622Z,0
2023-04-25T19:08:55.824Z,0
2023-04-25T19:10:01.848Z,0
2023-04-25T19:11:07.984Z,0
2023-04-25T19:12:14.173Z,0
2023-04-25T19:15:32.572Z,0
2023-04-25T19:16:37.738Z,0
2023-04-25T19:17:43.876Z,0
2023-04-25T19:18:50.017Z,0
2023-04-25T19:21:02.362Z,0
2023-04-25T19:23:14.582Z,0
2023-04-25T19:24:20.719Z,0
2023-04-25T19:26:33.046Z,0
2023-04-25T19:27:39.242Z,0
2023-04-25T19:28:45.303Z,0
2023-04-25T19:29:51.473Z,0
2023-04-25T19:32:03.898Z,0
2023-04-25T19:33:09.986Z,0
2023-04-25T19:34:16.313Z,0
2023-04-25T19:37:34.582Z,0
2023-04-25T19:38:40.737Z,0
2023-04-25T19:39:46.863Z,0
2023-04-25T19:41:58.187Z,0
2023-04-25T19:43:03.330Z,0
2023-04-25T19:44:09.630Z,0
2023-04-25T19:46:21.749Z,0
2023-04-25T19:47:27.931Z,0
2023-04-25T19:48:34.044Z,0
2023-04-25T19:49:40.180Z,0
2023-04-25T19:51:52.490Z,0
2023-04-25T19:54:04.754Z,0
2023-04-25T19:55:10.995Z,0
2023-04-25T19:56:17.042Z,0
2023-04-25T19:57:22.207Z,0
2023-04-25T19:58:28.346Z,0
2023-04-25T19:59:34.551Z,0
2023-04-25T20:01:46.813Z,0
2023-04-25T20:02:52.929Z,0
2023-04-25T20:03:59.114Z,0
2023-04-25T20:05:05.200Z,0
2023-04-25T20:06:11.433Z,0
2023-04-25T20:07:17.531Z,0
2023-04-25T20:08:23.639Z,0